sensor_id;sensor_type;location;lat;lon;timestamp;temperature;humidity
20171;DHT22;10245;51.344;6.620;2023-03-14T00:00:13;11.50;80.20
20171;DHT22;10245;51.344;6.620;2023-03-14T00:02:37;11.50;79.90
20171;DHT22;10245;51.344;6.620;2023-03-14T00:05:03;11.60;79.50
20171;DHT22;10245;51.344;6.620;2023-03-14T00:07:28;11.60;79.40
20171;DHT22;10245;51.344;6.620;2023-03-14T00:09:55;11.70;79.20
20171;DHT22;10245;51.344;6.620;2023-03-14T00:12:18;11.70;79.10
20171;DHT22;10245;51.344;6.620;2023-03-14T00:14:42;11.80;78.60
20171;DHT22;10245;51.344;6.620;2023-03-14T00:17:05;11.90;78.20
20171;DHT22;10245;51.344;6.620;2023-03-14T00:19:29;11.90;78.30
20171;DHT22;10245;51.344;6.620;2023-03-14T00:21:53;11.90;78.20
20171;DHT22;10245;51.344;6.620;2023-03-14T00:24:16;11.90;79.60
20171;DHT22;10245;51.344;6.620;2023-03-14T00:26:40;11.50;82.20
20171;DHT22;10245;51.344;6.620;2023-03-14T00:29:03;11.40;83.40
20171;DHT22;10245;51.344;6.620;2023-03-14T00:31:26;11.10;85.10
20171;DHT22;10245;51.344;6.620;2023-03-14T00:33:51;11.00;86.10
20171;DHT22;10245;51.344;6.620;2023-03-14T00:36:16;10.80;86.60
20171;DHT22;10245;51.344;6.620;2023-03-14T00:38:44;10.60;87.30
20171;DHT22;10245;51.344;6.620;2023-03-14T00:41:10;10.50;87.60
20171;DHT22;10245;51.344;6.620;2023-03-14T00:43:35;10.50;86.70
20171;DHT22;10245;51.344;6.620;2023-03-14T00:46:00;10.30;87.50
20171;DHT22;10245;51.344;6.620;2023-03-14T00:48:23;10.30;86.30
20171;DHT22;10245;51.344;6.620;2023-03-14T00:50:47;10.20;86.60
20171;DHT22;10245;51.344;6.620;2023-03-14T00:53:10;10.20;86.30
20171;DHT22;10245;51.344;6.620;2023-03-14T00:55:38;10.20;86.80
20171;DHT22;10245;51.344;6.620;2023-03-14T00:58:02;10.10;87.50
20171;DHT22;10245;51.344;6.620;2023-03-14T01:00:25;10.10;87.80
20171;DHT22;10245;51.344;6.620;2023-03-14T01:02:48;10.20;86.80
20171;DHT22;10245;51.344;6.620;2023-03-14T01:05:12;10.20;86.90
20171;DHT22;10245;51.344;6.620;2023-03-14T01:07:36;10.30;86.40
20171;DHT22;10245;51.344;6.620;2023-03-14T01:10:00;10.20;87.00
20171;DHT22;10245;51.344;6.620;2023-03-14T01:12:27;10.10;87.00
20171;DHT22;10245;51.344;6.620;2023-03-14T01:14:50;10.10;87.10
20171;DHT22;10245;51.344;6.620;2023-03-14T01:17:14;10.10;87.10
20171;DHT22;10245;51.344;6.620;2023-03-14T01:19:37;10.10;86.90
20171;DHT22;10245;51.344;6.620;2023-03-14T01:22:00;10.00;87.00
20171;DHT22;10245;51.344;6.620;2023-03-14T01:24:24;10.00;87.20
20171;DHT22;10245;51.344;6.620;2023-03-14T01:26:47;9.90;87.20
20171;DHT22;10245;51.344;6.620;2023-03-14T01:29:12;9.90;87.20
20171;DHT22;10245;51.344;6.620;2023-03-14T01:31:35;9.90;86.60
20171;DHT22;10245;51.344;6.620;2023-03-14T01:33:59;9.90;86.80
20171;DHT22;10245;51.344;6.620;2023-03-14T01:36:23;9.80;87.00
20171;DHT22;10245;51.344;6.620;2023-03-14T01:38:46;9.80;87.00
20171;DHT22;10245;51.344;6.620;2023-03-14T01:41:13;9.80;86.90
20171;DHT22;10245;51.344;6.620;2023-03-14T01:43:38;9.90;86.70
20171;DHT22;10245;51.344;6.620;2023-03-14T01:49:22;9.90;86.40
20171;DHT22;10245;51.344;6.620;2023-03-14T01:52:09;9.90;86.90
20171;DHT22;10245;51.344;6.620;2023-03-14T01:54:36;9.90;86.40
20171;DHT22;10245;51.344;6.620;2023-03-14T01:57:06;9.90;86.30
20171;DHT22;10245;51.344;6.620;2023-03-14T01:59:33;10.00;86.10
20171;DHT22;10245;51.344;6.620;2023-03-14T02:01:59;10.10;84.90
20171;DHT22;10245;51.344;6.620;2023-03-14T02:04:29;10.00;85.20
20171;DHT22;10245;51.344;6.620;2023-03-14T02:07:00;10.00;85.60
20171;DHT22;10245;51.344;6.620;2023-03-14T02:09:31;10.00;85.20
20171;DHT22;10245;51.344;6.620;2023-03-14T02:11:56;10.00;85.30
20171;DHT22;10245;51.344;6.620;2023-03-14T02:14:38;10.10;85.10
20171;DHT22;10245;51.344;6.620;2023-03-14T02:17:18;10.00;85.30
20171;DHT22;10245;51.344;6.620;2023-03-14T02:20:27;10.00;86.00
20171;DHT22;10245;51.344;6.620;2023-03-14T02:22:54;10.00;86.20
20171;DHT22;10245;51.344;6.620;2023-03-14T02:25:27;10.00;85.80
20171;DHT22;10245;51.344;6.620;2023-03-14T02:27:55;10.00;85.80
20171;DHT22;10245;51.344;6.620;2023-03-14T02:30:20;10.10;85.70
20171;DHT22;10245;51.344;6.620;2023-03-14T02:32:47;10.20;85.00
20171;DHT22;10245;51.344;6.620;2023-03-14T02:35:16;10.10;85.80
20171;DHT22;10245;51.344;6.620;2023-03-14T02:37:45;10.00;86.30
20171;DHT22;10245;51.344;6.620;2023-03-14T02:40:11;10.00;86.10
20171;DHT22;10245;51.344;6.620;2023-03-14T02:42:37;10.10;85.70
20171;DHT22;10245;51.344;6.620;2023-03-14T02:45:34;10.20;85.90
20171;DHT22;10245;51.344;6.620;2023-03-14T02:48:03;10.10;86.20
20171;DHT22;10245;51.344;6.620;2023-03-14T02:50:32;10.10;85.90
20171;DHT22;10245;51.344;6.620;2023-03-14T02:52:57;10.10;85.90
20171;DHT22;10245;51.344;6.620;2023-03-14T02:55:21;10.10;86.10
20171;DHT22;10245;51.344;6.620;2023-03-14T02:57:47;10.00;86.20
20171;DHT22;10245;51.344;6.620;2023-03-14T03:00:13;10.00;86.60
20171;DHT22;10245;51.344;6.620;2023-03-14T03:02:37;10.00;86.20
20171;DHT22;10245;51.344;6.620;2023-03-14T03:05:00;10.00;85.80
20171;DHT22;10245;51.344;6.620;2023-03-14T03:07:24;10.00;85.60
20171;DHT22;10245;51.344;6.620;2023-03-14T03:09:49;10.10;85.10
20171;DHT22;10245;51.344;6.620;2023-03-14T03:12:13;10.00;85.70
20171;DHT22;10245;51.344;6.620;2023-03-14T03:14:36;10.00;85.50
20171;DHT22;10245;51.344;6.620;2023-03-14T03:17:02;10.10;84.80
20171;DHT22;10245;51.344;6.620;2023-03-14T03:19:25;10.10;85.10
20171;DHT22;10245;51.344;6.620;2023-03-14T03:21:48;10.10;85.40
20171;DHT22;10245;51.344;6.620;2023-03-14T03:24:11;10.00;85.50
20171;DHT22;10245;51.344;6.620;2023-03-14T03:26:35;10.00;85.70
20171;DHT22;10245;51.344;6.620;2023-03-14T03:29:01;10.00;85.60
20171;DHT22;10245;51.344;6.620;2023-03-14T03:31:25;10.00;86.30
20171;DHT22;10245;51.344;6.620;2023-03-14T03:33:49;9.90;87.50
20171;DHT22;10245;51.344;6.620;2023-03-14T03:36:13;9.80;88.40
20171;DHT22;10245;51.344;6.620;2023-03-14T03:38:36;9.70;88.80
20171;DHT22;10245;51.344;6.620;2023-03-14T03:41:02;9.60;89.10
20171;DHT22;10245;51.344;6.620;2023-03-14T03:43:26;9.70;88.80
20171;DHT22;10245;51.344;6.620;2023-03-14T03:45:51;9.80;88.60
20171;DHT22;10245;51.344;6.620;2023-03-14T03:48:17;9.90;88.10
20171;DHT22;10245;51.344;6.620;2023-03-14T03:50:45;9.70;88.40
20171;DHT22;10245;51.344;6.620;2023-03-14T03:53:12;9.80;88.60
20171;DHT22;10245;51.344;6.620;2023-03-14T03:55:44;9.70;88.70
20171;DHT22;10245;51.344;6.620;2023-03-14T03:58:08;9.80;88.70
20171;DHT22;10245;51.344;6.620;2023-03-14T04:00:31;9.80;88.60
20171;DHT22;10245;51.344;6.620;2023-03-14T04:02:55;9.80;88.50
20171;DHT22;10245;51.344;6.620;2023-03-14T04:05:18;9.70;88.90
20171;DHT22;10245;51.344;6.620;2023-03-14T04:07:50;9.50;89.40
20171;DHT22;10245;51.344;6.620;2023-03-14T04:10:18;9.40;90.30
20171;DHT22;10245;51.344;6.620;2023-03-14T04:12:56;9.30;90.60
20171;DHT22;10245;51.344;6.620;2023-03-14T04:15:22;9.30;91.30
20171;DHT22;10245;51.344;6.620;2023-03-14T04:17:46;9.20;91.60
20171;DHT22;10245;51.344;6.620;2023-03-14T04:20:11;9.20;91.40
20171;DHT22;10245;51.344;6.620;2023-03-14T04:22:35;9.20;91.50
20171;DHT22;10245;51.344;6.620;2023-03-14T04:25:00;9.10;91.80
20171;DHT22;10245;51.344;6.620;2023-03-14T04:27:28;9.10;92.00
20171;DHT22;10245;51.344;6.620;2023-03-14T04:29:52;9.10;92.10
20171;DHT22;10245;51.344;6.620;2023-03-14T04:32:30;9.10;92.10
20171;DHT22;10245;51.344;6.620;2023-03-14T04:34:54;9.00;92.20
20171;DHT22;10245;51.344;6.620;2023-03-14T04:37:18;9.00;92.50
20171;DHT22;10245;51.344;6.620;2023-03-14T04:39:42;9.00;92.70
20171;DHT22;10245;51.344;6.620;2023-03-14T04:42:13;9.00;92.90
20171;DHT22;10245;51.344;6.620;2023-03-14T04:44:37;8.90;93.00
20171;DHT22;10245;51.344;6.620;2023-03-14T04:47:01;8.90;93.10
20171;DHT22;10245;51.344;6.620;2023-03-14T04:49:25;8.90;93.30
20171;DHT22;10245;51.344;6.620;2023-03-14T04:51:49;8.80;93.40
20171;DHT22;10245;51.344;6.620;2023-03-14T04:54:15;8.80;93.50
20171;DHT22;10245;51.344;6.620;2023-03-14T04:56:39;8.80;93.70
20171;DHT22;10245;51.344;6.620;2023-03-14T04:59:05;8.70;93.70
20171;DHT22;10245;51.344;6.620;2023-03-14T05:01:31;8.70;93.70
20171;DHT22;10245;51.344;6.620;2023-03-14T05:04:14;8.70;93.70
20171;DHT22;10245;51.344;6.620;2023-03-14T05:07:08;8.70;93.80
20171;DHT22;10245;51.344;6.620;2023-03-14T05:10:03;8.70;93.80
20171;DHT22;10245;51.344;6.620;2023-03-14T05:12:57;8.70;93.90
20171;DHT22;10245;51.344;6.620;2023-03-14T05:15:48;8.70;94.00
20171;DHT22;10245;51.344;6.620;2023-03-14T05:18:42;8.70;94.00
20171;DHT22;10245;51.344;6.620;2023-03-14T05:21:23;8.80;94.00
20171;DHT22;10245;51.344;6.620;2023-03-14T05:24:08;8.80;94.00
20171;DHT22;10245;51.344;6.620;2023-03-14T05:26:37;8.80;94.00
20171;DHT22;10245;51.344;6.620;2023-03-14T05:29:32;8.80;94.10
20171;DHT22;10245;51.344;6.620;2023-03-14T05:32:16;8.80;94.00
20171;DHT22;10245;51.344;6.620;2023-03-14T05:35:11;8.80;94.00
20171;DHT22;10245;51.344;6.620;2023-03-14T05:37:55;8.80;94.20
20171;DHT22;10245;51.344;6.620;2023-03-14T05:40:31;8.80;94.20
20171;DHT22;10245;51.344;6.620;2023-03-14T05:43:15;8.80;94.10
20171;DHT22;10245;51.344;6.620;2023-03-14T05:46:02;8.80;94.20
20171;DHT22;10245;51.344;6.620;2023-03-14T05:48:27;8.80;94.20
20171;DHT22;10245;51.344;6.620;2023-03-14T05:51:11;8.90;94.20
20171;DHT22;10245;51.344;6.620;2023-03-14T05:54:13;8.90;94.20
20171;DHT22;10245;51.344;6.620;2023-03-14T05:56:54;9.00;94.20
20171;DHT22;10245;51.344;6.620;2023-03-14T05:59:43;9.00;94.10
20171;DHT22;10245;51.344;6.620;2023-03-14T06:02:33;9.00;93.90
20171;DHT22;10245;51.344;6.620;2023-03-14T06:05:08;9.10;93.90
20171;DHT22;10245;51.344;6.620;2023-03-14T06:07:32;9.10;93.90
20171;DHT22;10245;51.344;6.620;2023-03-14T06:09:55;9.10;93.90
20171;DHT22;10245;51.344;6.620;2023-03-14T06:12:20;9.20;93.90
20171;DHT22;10245;51.344;6.620;2023-03-14T06:14:44;9.20;93.70
20171;DHT22;10245;51.344;6.620;2023-03-14T06:17:08;9.20;93.50
20171;DHT22;10245;51.344;6.620;2023-03-14T06:19:40;9.30;93.40
20171;DHT22;10245;51.344;6.620;2023-03-14T06:22:07;9.30;93.30
20171;DHT22;10245;51.344;6.620;2023-03-14T06:24:32;9.30;93.20
20171;DHT22;10245;51.344;6.620;2023-03-14T06:26:55;9.40;93.10
20171;DHT22;10245;51.344;6.620;2023-03-14T06:29:19;9.40;93.20
20171;DHT22;10245;51.344;6.620;2023-03-14T06:31:42;9.40;93.20
20171;DHT22;10245;51.344;6.620;2023-03-14T06:34:09;9.40;93.20
20171;DHT22;10245;51.344;6.620;2023-03-14T06:36:33;9.50;93.00
20171;DHT22;10245;51.344;6.620;2023-03-14T06:38:58;9.50;93.10
20171;DHT22;10245;51.344;6.620;2023-03-14T06:41:25;9.40;93.10
20171;DHT22;10245;51.344;6.620;2023-03-14T06:43:48;9.50;93.10
20171;DHT22;10245;51.344;6.620;2023-03-14T06:46:12;9.50;93.20
20171;DHT22;10245;51.344;6.620;2023-03-14T06:48:37;9.50;93.40
20171;DHT22;10245;51.344;6.620;2023-03-14T06:51:02;9.40;93.30
20171;DHT22;10245;51.344;6.620;2023-03-14T06:53:26;9.50;93.20
20171;DHT22;10245;51.344;6.620;2023-03-14T06:55:51;9.50;93.30
20171;DHT22;10245;51.344;6.620;2023-03-14T06:58:15;9.50;93.50
20171;DHT22;10245;51.344;6.620;2023-03-14T07:00:39;9.50;93.30
20171;DHT22;10245;51.344;6.620;2023-03-14T07:03:05;9.50;93.40
20171;DHT22;10245;51.344;6.620;2023-03-14T07:05:32;9.50;93.20
20171;DHT22;10245;51.344;6.620;2023-03-14T07:07:56;9.50;93.30
20171;DHT22;10245;51.344;6.620;2023-03-14T07:10:20;9.60;93.00
20171;DHT22;10245;51.344;6.620;2023-03-14T07:12:46;9.70;92.50
20171;DHT22;10245;51.344;6.620;2023-03-14T07:15:10;9.70;92.30
20171;DHT22;10245;51.344;6.620;2023-03-14T07:17:40;9.80;92.70
20171;DHT22;10245;51.344;6.620;2023-03-14T07:20:05;9.70;92.80
20171;DHT22;10245;51.344;6.620;2023-03-14T07:22:30;9.70;92.70
20171;DHT22;10245;51.344;6.620;2023-03-14T07:24:54;9.80;92.90
20171;DHT22;10245;51.344;6.620;2023-03-14T07:27:18;9.80;93.20
20171;DHT22;10245;51.344;6.620;2023-03-14T07:29:44;9.80;93.30
20171;DHT22;10245;51.344;6.620;2023-03-14T07:32:07;9.70;93.40
20171;DHT22;10245;51.344;6.620;2023-03-14T07:34:31;9.80;93.40
20171;DHT22;10245;51.344;6.620;2023-03-14T07:36:54;9.80;93.40
20171;DHT22;10245;51.344;6.620;2023-03-14T07:39:18;9.80;93.70
20171;DHT22;10245;51.344;6.620;2023-03-14T07:42:04;9.80;93.50
20171;DHT22;10245;51.344;6.620;2023-03-14T07:44:50;9.70;93.70
20171;DHT22;10245;51.344;6.620;2023-03-14T07:47:13;9.80;93.80
20171;DHT22;10245;51.344;6.620;2023-03-14T07:49:36;9.80;94.00
20171;DHT22;10245;51.344;6.620;2023-03-14T07:51:59;9.80;94.10
20171;DHT22;10245;51.344;6.620;2023-03-14T07:54:23;9.80;94.20
20171;DHT22;10245;51.344;6.620;2023-03-14T07:56:46;9.80;94.20
20171;DHT22;10245;51.344;6.620;2023-03-14T07:59:10;9.80;94.40
20171;DHT22;10245;51.344;6.620;2023-03-14T08:01:35;9.80;94.30
20171;DHT22;10245;51.344;6.620;2023-03-14T08:03:59;9.80;94.20
20171;DHT22;10245;51.344;6.620;2023-03-14T08:06:22;9.80;94.40
20171;DHT22;10245;51.344;6.620;2023-03-14T08:08:46;9.80;94.30
20171;DHT22;10245;51.344;6.620;2023-03-14T08:11:10;9.80;94.20
20171;DHT22;10245;51.344;6.620;2023-03-14T08:13:33;9.90;94.00
20171;DHT22;10245;51.344;6.620;2023-03-14T08:15:56;9.90;94.10
20171;DHT22;10245;51.344;6.620;2023-03-14T08:18:21;10.00;94.10
20171;DHT22;10245;51.344;6.620;2023-03-14T08:20:45;9.90;93.80
20171;DHT22;10245;51.344;6.620;2023-03-14T08:23:08;10.00;93.90
20171;DHT22;10245;51.344;6.620;2023-03-14T08:25:31;10.00;94.00
20171;DHT22;10245;51.344;6.620;2023-03-14T08:27:56;9.90;94.00
20171;DHT22;10245;51.344;6.620;2023-03-14T08:30:20;10.00;93.90
20171;DHT22;10245;51.344;6.620;2023-03-14T08:32:44;10.00;94.00
20171;DHT22;10245;51.344;6.620;2023-03-14T08:35:10;10.00;94.00
20171;DHT22;10245;51.344;6.620;2023-03-14T08:37:34;10.00;94.00
20171;DHT22;10245;51.344;6.620;2023-03-14T08:39:58;10.00;93.80
20171;DHT22;10245;51.344;6.620;2023-03-14T08:42:22;10.00;93.70
20171;DHT22;10245;51.344;6.620;2023-03-14T08:44:45;10.00;93.50
20171;DHT22;10245;51.344;6.620;2023-03-14T08:47:08;10.00;93.10
20171;DHT22;10245;51.344;6.620;2023-03-14T08:49:32;10.00;93.30
20171;DHT22;10245;51.344;6.620;2023-03-14T08:51:57;9.90;93.60
20171;DHT22;10245;51.344;6.620;2023-03-14T08:54:20;10.00;93.70
20171;DHT22;10245;51.344;6.620;2023-03-14T08:56:43;9.90;93.60
20171;DHT22;10245;51.344;6.620;2023-03-14T08:59:07;10.00;93.20
20171;DHT22;10245;51.344;6.620;2023-03-14T09:01:32;10.10;92.80
20171;DHT22;10245;51.344;6.620;2023-03-14T09:03:56;10.10;92.60
20171;DHT22;10245;51.344;6.620;2023-03-14T09:06:19;10.00;93.20
20171;DHT22;10245;51.344;6.620;2023-03-14T09:08:44;9.80;91.80
20171;DHT22;10245;51.344;6.620;2023-03-14T09:11:08;9.20;91.60
20171;DHT22;10245;51.344;6.620;2023-03-14T09:13:31;8.80;91.40
20171;DHT22;10245;51.344;6.620;2023-03-14T09:15:56;8.50;91.30
20171;DHT22;10245;51.344;6.620;2023-03-14T09:18:19;8.30;91.40
20171;DHT22;10245;51.344;6.620;2023-03-14T09:20:43;8.10;91.40
20171;DHT22;10245;51.344;6.620;2023-03-14T09:23:06;8.10;91.30
20171;DHT22;10245;51.344;6.620;2023-03-14T09:25:31;8.10;92.20
20171;DHT22;10245;51.344;6.620;2023-03-14T09:27:54;8.10;92.00
20171;DHT22;10245;51.344;6.620;2023-03-14T09:30:18;8.10;92.10
20171;DHT22;10245;51.344;6.620;2023-03-14T09:32:41;8.10;91.90
20171;DHT22;10245;51.344;6.620;2023-03-14T09:35:05;8.00;92.20
20171;DHT22;10245;51.344;6.620;2023-03-14T09:37:28;8.00;92.40
20171;DHT22;10245;51.344;6.620;2023-03-14T09:39:52;8.10;92.80
20171;DHT22;10245;51.344;6.620;2023-03-14T09:42:18;8.00;92.70
20171;DHT22;10245;51.344;6.620;2023-03-14T09:44:51;8.00;92.50
20171;DHT22;10245;51.344;6.620;2023-03-14T09:47:18;8.00;91.80
20171;DHT22;10245;51.344;6.620;2023-03-14T09:49:42;8.00;91.50
20171;DHT22;10245;51.344;6.620;2023-03-14T09:52:10;8.00;92.00
20171;DHT22;10245;51.344;6.620;2023-03-14T09:54:38;8.10;92.00
20171;DHT22;10245;51.344;6.620;2023-03-14T09:57:05;8.00;91.60
20171;DHT22;10245;51.344;6.620;2023-03-14T09:59:31;8.00;91.90
20171;DHT22;10245;51.344;6.620;2023-03-14T10:01:56;8.20;92.30
20171;DHT22;10245;51.344;6.620;2023-03-14T10:04:22;8.20;91.60
20171;DHT22;10245;51.344;6.620;2023-03-14T10:06:46;8.30;91.80
20171;DHT22;10245;51.344;6.620;2023-03-14T10:09:13;8.30;91.10
20171;DHT22;10245;51.344;6.620;2023-03-14T10:11:46;8.40;91.00
20171;DHT22;10245;51.344;6.620;2023-03-14T10:14:11;8.50;91.50
20171;DHT22;10245;51.344;6.620;2023-03-14T10:16:40;8.40;90.50
20171;DHT22;10245;51.344;6.620;2023-03-14T10:19:07;8.30;90.40
20171;DHT22;10245;51.344;6.620;2023-03-14T10:21:37;8.30;89.50
20171;DHT22;10245;51.344;6.620;2023-03-14T10:24:15;8.30;90.40
20171;DHT22;10245;51.344;6.620;2023-03-14T10:26:42;8.30;90.50
20171;DHT22;10245;51.344;6.620;2023-03-14T10:29:10;8.30;90.10
20171;DHT22;10245;51.344;6.620;2023-03-14T10:31:47;8.30;90.20
20171;DHT22;10245;51.344;6.620;2023-03-14T10:34:17;8.20;90.60
20171;DHT22;10245;51.344;6.620;2023-03-14T10:36:45;8.10;91.50
20171;DHT22;10245;51.344;6.620;2023-03-14T10:39:23;8.00;91.90
20171;DHT22;10245;51.344;6.620;2023-03-14T10:41:53;7.80;92.20
20171;DHT22;10245;51.344;6.620;2023-03-14T10:44:23;7.50;92.20
20171;DHT22;10245;51.344;6.620;2023-03-14T10:46:56;7.30;91.60
20171;DHT22;10245;51.344;6.620;2023-03-14T10:49:27;7.30;91.70
20171;DHT22;10245;51.344;6.620;2023-03-14T10:51:51;7.10;90.90
20171;DHT22;10245;51.344;6.620;2023-03-14T10:54:21;7.10;91.00
20171;DHT22;10245;51.344;6.620;2023-03-14T10:56:56;7.10;91.10
20171;DHT22;10245;51.344;6.620;2023-03-14T10:59:20;7.20;91.70
20171;DHT22;10245;51.344;6.620;2023-03-14T11:01:50;7.10;90.60
20171;DHT22;10245;51.344;6.620;2023-03-14T11:04:31;7.10;90.60
20171;DHT22;10245;51.344;6.620;2023-03-14T11:07:09;7.20;90.70
20171;DHT22;10245;51.344;6.620;2023-03-14T11:09:41;6.80;90.00
20171;DHT22;10245;51.344;6.620;2023-03-14T11:12:20;6.80;90.10
20171;DHT22;10245;51.344;6.620;2023-03-14T11:14:56;6.80;89.70
20171;DHT22;10245;51.344;6.620;2023-03-14T11:17:29;6.90;89.40
20171;DHT22;10245;51.344;6.620;2023-03-14T11:20:07;6.90;89.00
20171;DHT22;10245;51.344;6.620;2023-03-14T11:22:44;7.10;89.30
20171;DHT22;10245;51.344;6.620;2023-03-14T11:25:18;7.00;88.60
20171;DHT22;10245;51.344;6.620;2023-03-14T11:27:51;6.90;88.50
20171;DHT22;10245;51.344;6.620;2023-03-14T11:30:24;7.00;87.50
20171;DHT22;10245;51.344;6.620;2023-03-14T11:32:59;7.00;86.00
20171;DHT22;10245;51.344;6.620;2023-03-14T11:35:30;7.00;86.40
20171;DHT22;10245;51.344;6.620;2023-03-14T11:37:58;7.20;86.90
20171;DHT22;10245;51.344;6.620;2023-03-14T11:40:28;7.10;86.80
20171;DHT22;10245;51.344;6.620;2023-03-14T11:42:58;7.10;86.50
20171;DHT22;10245;51.344;6.620;2023-03-14T11:45:29;7.00;86.50
20171;DHT22;10245;51.344;6.620;2023-03-14T11:48:07;7.20;86.70
20171;DHT22;10245;51.344;6.620;2023-03-14T11:50:38;7.10;85.90
20171;DHT22;10245;51.344;6.620;2023-03-14T11:53:07;7.20;87.10
20171;DHT22;10245;51.344;6.620;2023-03-14T11:55:34;7.00;84.10
20171;DHT22;10245;51.344;6.620;2023-03-14T11:58:05;7.10;84.80
20171;DHT22;10245;51.344;6.620;2023-03-14T12:00:35;7.10;83.60
20171;DHT22;10245;51.344;6.620;2023-03-14T12:03:09;7.00;82.10
20171;DHT22;10245;51.344;6.620;2023-03-14T12:05:42;7.20;81.80
20171;DHT22;10245;51.344;6.620;2023-03-14T12:08:38;7.40;83.30
20171;DHT22;10245;51.344;6.620;2023-03-14T12:11:10;7.50;84.10
20171;DHT22;10245;51.344;6.620;2023-03-14T12:13:38;7.40;81.60
20171;DHT22;10245;51.344;6.620;2023-03-14T12:16:05;7.50;81.10
20171;DHT22;10245;51.344;6.620;2023-03-14T12:18:33;7.60;81.20
20171;DHT22;10245;51.344;6.620;2023-03-14T12:21:02;7.70;79.90
20171;DHT22;10245;51.344;6.620;2023-03-14T12:23:28;7.80;79.30
20171;DHT22;10245;51.344;6.620;2023-03-14T12:26:13;7.70;80.20
20171;DHT22;10245;51.344;6.620;2023-03-14T12:28:43;7.60;81.80
20171;DHT22;10245;51.344;6.620;2023-03-14T12:31:38;7.60;80.90
20171;DHT22;10245;51.344;6.620;2023-03-14T12:37:12;7.40;82.00
20171;DHT22;10245;51.344;6.620;2023-03-14T12:39:45;7.00;85.20
20171;DHT22;10245;51.344;6.620;2023-03-14T12:42:15;6.80;85.80
20171;DHT22;10245;51.344;6.620;2023-03-14T12:44:46;6.70;88.00
20171;DHT22;10245;51.344;6.620;2023-03-14T12:50:20;6.10;87.40
20171;DHT22;10245;51.344;6.620;2023-03-14T12:53:00;6.10;85.90
20171;DHT22;10245;51.344;6.620;2023-03-14T12:56:02;6.40;86.20
20171;DHT22;10245;51.344;6.620;2023-03-14T12:58:34;6.50;86.10
20171;DHT22;10245;51.344;6.620;2023-03-14T13:01:01;6.50;85.20
20171;DHT22;10245;51.344;6.620;2023-03-14T13:03:27;6.40;83.90
20171;DHT22;10245;51.344;6.620;2023-03-14T13:06:03;6.50;84.30
20171;DHT22;10245;51.344;6.620;2023-03-14T13:08:37;6.70;84.60
20171;DHT22;10245;51.344;6.620;2023-03-14T13:11:04;6.70;84.10
20171;DHT22;10245;51.344;6.620;2023-03-14T13:13:28;6.90;84.10
20171;DHT22;10245;51.344;6.620;2023-03-14T13:15:54;7.10;84.30
20171;DHT22;10245;51.344;6.620;2023-03-14T13:18:27;7.10;83.00
20171;DHT22;10245;51.344;6.620;2023-03-14T13:20:55;7.20;82.40
20171;DHT22;10245;51.344;6.620;2023-03-14T13:23:25;7.00;83.10
20171;DHT22;10245;51.344;6.620;2023-03-14T13:25:49;7.20;83.30
20171;DHT22;10245;51.344;6.620;2023-03-14T13:28:14;7.30;82.90
20171;DHT22;10245;51.344;6.620;2023-03-14T13:30:41;7.50;83.30
20171;DHT22;10245;51.344;6.620;2023-03-14T13:33:11;7.50;81.00
20171;DHT22;10245;51.344;6.620;2023-03-14T13:35:41;7.50;79.60
20171;DHT22;10245;51.344;6.620;2023-03-14T13:38:13;7.50;79.60
20171;DHT22;10245;51.344;6.620;2023-03-14T13:40:43;7.60;80.60
20171;DHT22;10245;51.344;6.620;2023-03-14T13:43:16;7.80;78.90
20171;DHT22;10245;51.344;6.620;2023-03-14T13:45:51;7.70;77.10
20171;DHT22;10245;51.344;6.620;2023-03-14T13:48:16;8.00;77.60
20171;DHT22;10245;51.344;6.620;2023-03-14T13:50:54;8.40;78.60
20171;DHT22;10245;51.344;6.620;2023-03-14T13:53:19;8.50;77.80
20171;DHT22;10245;51.344;6.620;2023-03-14T13:55:44;8.40;73.00
20171;DHT22;10245;51.344;6.620;2023-03-14T13:58:18;8.40;69.00
20171;DHT22;10245;51.344;6.620;2023-03-14T14:00:54;8.50;70.00
20171;DHT22;10245;51.344;6.620;2023-03-14T14:03:19;8.90;68.00
20171;DHT22;10245;51.344;6.620;2023-03-14T14:05:44;8.50;67.40
20171;DHT22;10245;51.344;6.620;2023-03-14T14:08:11;8.70;64.60
20171;DHT22;10245;51.344;6.620;2023-03-14T14:10:37;8.80;63.70
20171;DHT22;10245;51.344;6.620;2023-03-14T14:13:03;9.00;63.30
20171;DHT22;10245;51.344;6.620;2023-03-14T14:15:31;9.00;60.70
20171;DHT22;10245;51.344;6.620;2023-03-14T14:17:59;9.20;67.00
20171;DHT22;10245;51.344;6.620;2023-03-14T14:20:29;9.60;61.50
20171;DHT22;10245;51.344;6.620;2023-03-14T14:22:57;9.20;57.90
20171;DHT22;10245;51.344;6.620;2023-03-14T14:25:21;8.90;59.20
20171;DHT22;10245;51.344;6.620;2023-03-14T14:27:48;9.20;61.90
20171;DHT22;10245;51.344;6.620;2023-03-14T14:30:29;8.50;59.10
20171;DHT22;10245;51.344;6.620;2023-03-14T14:33:11;8.70;60.60
20171;DHT22;10245;51.344;6.620;2023-03-14T14:35:40;8.40;62.60
20171;DHT22;10245;51.344;6.620;2023-03-14T14:38:11;8.30;58.50
20171;DHT22;10245;51.344;6.620;2023-03-14T14:40:43;8.40;56.20
20171;DHT22;10245;51.344;6.620;2023-03-14T14:43:12;8.50;62.70
20171;DHT22;10245;51.344;6.620;2023-03-14T14:45:42;8.30;57.40
20171;DHT22;10245;51.344;6.620;2023-03-14T14:48:09;8.20;54.80
20171;DHT22;10245;51.344;6.620;2023-03-14T14:50:36;8.30;55.40
20171;DHT22;10245;51.344;6.620;2023-03-14T14:53:03;8.50;57.00
20171;DHT22;10245;51.344;6.620;2023-03-14T14:55:40;8.50;55.60
20171;DHT22;10245;51.344;6.620;2023-03-14T14:58:18;8.30;52.40
20171;DHT22;10245;51.344;6.620;2023-03-14T15:00:54;8.40;50.80
20171;DHT22;10245;51.344;6.620;2023-03-14T15:03:20;8.50;53.80
20171;DHT22;10245;51.344;6.620;2023-03-14T15:05:43;8.40;51.20
20171;DHT22;10245;51.344;6.620;2023-03-14T15:08:09;8.40;52.70
20171;DHT22;10245;51.344;6.620;2023-03-14T15:10:32;8.30;53.90
20171;DHT22;10245;51.344;6.620;2023-03-14T15:12:56;8.30;53.90
20171;DHT22;10245;51.344;6.620;2023-03-14T15:15:19;8.30;51.40
20171;DHT22;10245;51.344;6.620;2023-03-14T15:17:44;8.20;51.80
20171;DHT22;10245;51.344;6.620;2023-03-14T15:20:11;8.10;50.70
20171;DHT22;10245;51.344;6.620;2023-03-14T15:22:36;8.10;52.40
20171;DHT22;10245;51.344;6.620;2023-03-14T15:24:59;8.10;53.60
20171;DHT22;10245;51.344;6.620;2023-03-14T15:27:22;8.10;52.60
20171;DHT22;10245;51.344;6.620;2023-03-14T15:29:46;8.10;53.40
20171;DHT22;10245;51.344;6.620;2023-03-14T15:32:11;8.00;53.60
20171;DHT22;10245;51.344;6.620;2023-03-14T15:34:36;8.00;52.90
20171;DHT22;10245;51.344;6.620;2023-03-14T15:37:00;8.10;54.00
20171;DHT22;10245;51.344;6.620;2023-03-14T15:39:28;8.00;54.90
20171;DHT22;10245;51.344;6.620;2023-03-14T15:41:52;8.00;54.70
20171;DHT22;10245;51.344;6.620;2023-03-14T15:44:16;8.00;53.50
20171;DHT22;10245;51.344;6.620;2023-03-14T15:46:39;8.00;54.20
20171;DHT22;10245;51.344;6.620;2023-03-14T15:49:02;7.90;52.80
20171;DHT22;10245;51.344;6.620;2023-03-14T15:51:27;7.90;51.10
20171;DHT22;10245;51.344;6.620;2023-03-14T15:53:50;7.70;50.90
20171;DHT22;10245;51.344;6.620;2023-03-14T15:56:16;7.60;52.50
20171;DHT22;10245;51.344;6.620;2023-03-14T15:58:41;7.60;52.10